Time;durP1;ratioP1;P1;durP2;ratioP2;P2;SDS_P1;SDS_P2;PMS_P1;PMS_P2;Temp;Humidity;BMP_temperature;BMP_pressure;BME280_temperature;BME280_humidity;BME280_pressure;Samples;Min_cycle;Max_cycle;Signal;HPM_P1;HPM_P2
2023/10/01 00:00:15;;;;;;;4.83;3.20;;;;;;;7.00;100.00;96953.66;7425811;19;20384;-95
2023/10/01 00:03:10;;;;;;;4.30;3.73;;;;;;;6.99;100.00;96954.75;7425526;19;20408;-93
2023/10/01 00:05:58;;;;;;;3.33;3.00;;;;;;;6.73;100.00;96928.06;7425716;19;20373;-93
2023/10/01 00:08:26;;;;;;;5.90;3.63;;;;;;;5.03;100.00;96691.03;7424746;19;20397;-93
2023/10/01 00:11:10;;;;;;;7.73;3.30;;;;;;;5.85;100.00;96809.53;7422587;19;20412;-95
2023/10/01 00:14:08;;;;;;;6.50;4.17;;;;;;;6.78;100.00;96946.38;7424348;19;20369;-93
2023/10/01 00:17:05;;;;;;;6.70;4.63;;;;;;;5.22;100.00;96698.94;7422608;19;20384;-93
2023/10/01 00:19:49;;;;;;;6.30;3.70;;;;;;;6.09;100.00;96806.09;7424513;19;20393;-93
2023/10/01 00:22:35;;;;;;;5.33;4.10;;;;;;;5.77;100.00;96799.69;7428426;19;20379;-93
2023/10/01 00:25:19;;;;;;;4.20;3.17;;;;;;;5.38;100.00;96681.94;7424281;19;20376;-93
2023/10/01 00:28:07;;;;;;;6.30;5.30;;;;;;;6.14;100.00;96834.88;7425353;19;20400;-93
2023/10/01 00:31:04;;;;;;;7.07;4.50;;;;;;;5.33;100.00;96714.25;7424854;19;20443;-93
2023/10/01 00:34:07;;;;;;;16.70;6.33;;;;;;;5.85;100.00;96762.31;7424837;19;20385;-93
2023/10/01 00:37:01;;;;;;;10.17;5.17;;;;;;;6.08;100.00;96780.91;7425214;19;20429;-93
2023/10/01 00:40:28;;;;;;;9.13;5.67;;;;;;;6.34;100.00;96795.22;7427476;19;20376;-93
2023/10/01 00:43:36;;;;;;;13.87;4.93;;;;;;;6.85;100.00;96915.28;7427107;19;20376;-93
2023/10/01 00:46:23;;;;;;;9.37;5.33;;;;;;;5.54;100.00;96672.78;7428029;19;20375;-93
2023/10/01 00:49:12;;;;;;;9.87;5.17;;;;;;;7.08;100.00;96922.25;7427037;19;20364;-93
2023/10/01 00:52:32;;;;;;;11.67;5.13;;;;;;;5.87;100.00;96739.19;7424131;19;20423;-94
2023/10/01 00:58:21;;;;;;;7.07;5.00;;;;;;;6.96;100.00;96915.88;7426980;19;20347;-93
2023/10/01 01:01:19;;;;;;;9.93;4.83;;;;;;;6.94;100.00;96908.25;7426402;19;20428;-94
2023/10/01 01:04:44;;;;;;;12.33;6.07;;;;;;;5.96;100.00;96759.56;7425078;19;20384;-93
2023/10/01 12:11:26;;;;;;;6.87;6.10;;;;;;;18.85;81.25;96765.84;7444673;19;20459;-96
2023/10/01 12:14:17;;;;;;;7.50;5.60;;;;;;;19.10;78.51;96835.78;7436136;19;20464;-95
2023/10/01 13:30:25;;;;;;;6.67;4.70;;;;;;;22.77;62.59;96930.25;7431830;19;20423;-95
2023/10/01 13:33:10;;;;;;;6.47;5.33;;;;;;;21.87;59.82;96915.38;7434195;19;20408;-95
2023/10/01 13:35:58;;;;;;;8.80;5.37;;;;;;;20.71;61.82;96718.56;7433131;19;20400;-95
2023/10/01 14:10:22;;;;;;;8.53;5.67;;;;;;;22.06;59.56;96888.09;7431292;19;20462;-95
2023/10/01 14:13:00;;;;;;;6.50;4.50;;;;;;;20.77;59.70;96725.09;7433519;19;20400;-93
2023/10/01 14:15:36;;;;;;;6.20;4.50;;;;;;;21.44;58.96;96737.78;7429374;19;20377;-94
2023/10/01 14:18:34;;;;;;;6.50;4.93;;;;;;;22.26;60.14;96881.13;7429017;19;20400;-94
2023/10/01 14:21:19;;;;;;;5.43;4.27;;;;;;;22.01;56.29;96872.28;7426266;19;20436;-94
2023/10/01 14:27:00;;;;;;;5.57;5.00;;;;;;;20.91;61.59;96857.59;7431594;19;20397;-93
2023/10/01 14:29:33;;;;;;;7.53;5.30;;;;;;;21.97;58.84;96866.13;7430370;19;20396;-92
2023/10/01 14:32:18;;;;;;;6.87;5.10;;;;;;;21.79;58.60;96864.25;7431212;19;20429;-94
2023/10/01 14:34:57;;;;;;;5.73;4.47;;;;;;;21.28;59.09;96840.41;7425210;19;20447;-95
2023/10/01 14:40:43;;;;;;;4.73;4.10;;;;;;;21.17;57.89;96812.69;7433065;19;20421;-95
2023/10/01 14:43:27;;;;;;;5.70;3.90;;;;;;;21.35;58.67;96858.47;7432195;19;20404;-95
2023/10/01 14:45:57;;;;;;;6.27;5.00;;;;;;;20.52;61.38;96781.47;7431098;19;20380;-95
2023/10/01 14:52:04;;;;;;;6.87;4.30;;;;;;;19.94;58.74;96665.03;7412518;19;20440;-96
2023/10/01 14:54:50;;;;;;;6.17;4.80;;;;;;;20.16;59.18;96737.56;7432007;19;20451;-95
2023/10/01 14:57:31;;;;;;;7.70;4.37;;;;;;;21.13;57.57;96841.53;7430455;19;20400;-95
2023/10/01 15:00:16;;;;;;;6.50;4.73;;;;;;;20.49;58.41;96788.38;7432337;19;20393;-94
2023/10/01 15:02:57;;;;;;;6.77;4.50;;;;;;;20.38;60.17;96825.91;7431636;19;20403;-96
2023/10/01 15:05:28;;;;;;;4.93;4.27;;;;;;;20.02;61.79;96841.06;7430226;19;20424;-93
2023/10/01 15:08:09;;;;;;;6.10;5.00;;;;;;;19.48;61.00;96703.09;7431941;19;20384;-94
2023/10/01 15:10:50;;;;;;;8.03;4.73;;;;;;;20.05;59.81;96749.06;7430618;19;20424;-95
2023/10/01 16:58:56;;;;;;;6.77;4.57;;;;;;;13.99;100.00;96596.69;7434458;19;20400;-95
2023/10/01 17:01:38;;;;;;;6.40;5.23;;;;;;;15.15;100.00;96810.25;7431721;19;20424;-95
2023/10/01 17:04:26;;;;;;;7.13;5.63;;;;;;;14.13;100.00;96678.72;7435870;19;20404;-96
2023/10/01 17:07:01;;;;;;;8.47;5.43;;;;;;;14.15;100.00;96703.84;7434551;19;20392;-96
2023/10/01 17:09:32;;;;;;;6.87;4.77;;;;;;;13.93;100.00;96675.16;7435773;19;20379;-96
2023/10/01 17:12:23;;;;;;;5.87;4.87;;;;;;;14.18;100.00;96705.84;7432191;19;20453;-95
2023/10/01 17:15:53;;;;;;;10.03;5.83;;;;;;;14.89;100.00;96807.31;7434418;19;20381;-94
2023/10/01 17:18:24;;;;;;;8.87;6.00;;;;;;;14.12;100.00;96711.75;7433467;19;20389;-95
2023/10/01 17:36:19;;;;;;;9.07;6.30;;;;;;;13.49;100.00;96805.28;7433561;19;20405;-96
2023/10/01 17:39:19;;;;;;;7.93;6.20;;;;;;;13.58;100.00;96803.25;7432937;19;20404;-95
2023/10/01 17:42:03;;;;;;;7.63;6.07;;;;;;;12.82;100.00;96713.63;7432159;19;20409;-96
2023/10/01 17:44:45;;;;;;;7.03;4.90;;;;;;;13.45;100.00;96815.00;7434313;19;20435;-96
2023/10/01 17:47:29;;;;;;;7.33;6.13;;;;;;;13.19;100.00;96770.16;7430760;19;20392;-96
2023/10/01 17:50:15;;;;;;;10.67;6.30;;;;;;;13.33;100.00;96809.66;7434455;19;20403;-96
2023/10/01 17:52:56;;;;;;;12.00;6.53;;;;;;;13.01;100.00;96819.25;7433039;19;20415;-96
2023/10/01 17:56:35;;;;;;;11.13;6.80;;;;;;;12.95;100.00;96815.25;7430209;19;20408;-95
2023/10/01 17:59:46;;;;;;;12.47;10.03;;;;;;;12.89;100.00;96753.63;7432499;19;20396;-95
2023/10/01 18:03:27;;;;;;;12.97;7.23;;;;;;;12.10;100.00;96635.47;7430607;19;20384;-96
2023/10/01 18:36:02;;;;;;;9.93;6.73;;;;;;;9.91;100.00;96571.34;7374985;19;20448;-96
